Brookesmith, Texas
Current Conditions -  °F | °C
As of 3:55 PM on Thursday 27 Nov 2014 (Local Time) from KBWD Reporting Station
Clear Clear  
Wind Chill: 59°   Ceiling: Unl
Heat Index: 59°   Visibility: 10mi
Dew Point: 28°   Wind: 8mph
Humidity: 31%   Direction: 150°SSE
Pressure: 30.4"   Gusts: NA
Location:  31.55°N, 99.12°W
Report Text: KBWD 272155Z AUTO 15007KT 10SM CLR 15/M02 A3040 RMK AO2
Loading
Personal Weather Stations






























Interactive Weather Map New forecast layout! Learn more

10-Day Weather Forecast

Advertisements
Track Severe Weather on mobile